sensor_id;sensor_type;location;lat;lon;timestamp;pressure;altitude;pressure_sealevel;temperature;humidity
19447;BME280;9862;49.462;11.054;2023-02-10T00:01:13;99878.63;;;3.04;100.00
19447;BME280;9862;49.462;11.054;2023-02-10T00:03:39;99881.25;;;3.04;100.00
19447;BME280;9862;49.462;11.054;2023-02-10T00:06:09;99875.88;;;3.05;100.00
19447;BME280;9862;49.462;11.054;2023-02-10T00:08:36;99872.16;;;3.08;100.00
19447;BME280;9862;49.462;11.054;2023-02-10T00:11:04;99871.41;;;2.95;100.00
19447;BME280;9862;49.462;11.054;2023-02-10T00:13:31;99860.66;;;2.98;100.00
19447;BME280;9862;49.462;11.054;2023-02-10T00:15:58;99871.66;;;2.92;100.00
19447;BME280;9862;49.462;11.054;2023-02-10T00:18:25;99870.81;;;2.91;100.00
19447;BME280;9862;49.462;11.054;2023-02-10T00:20:51;99875.22;;;2.91;100.00
19447;BME280;9862;49.462;11.054;2023-02-10T00:23:20;99876.91;;;2.92;100.00
19447;BME280;9862;49.462;11.054;2023-02-10T00:25:46;99870.19;;;2.87;100.00
19447;BME280;9862;49.462;11.054;2023-02-10T00:28:13;99878.66;;;2.80;100.00
19447;BME280;9862;49.462;11.054;2023-02-10T00:30:40;99873.63;;;2.77;100.00
19447;BME280;9862;49.462;11.054;2023-02-10T00:33:06;99878.38;;;2.72;100.00
19447;BME280;9862;49.462;11.054;2023-02-10T00:35:33;99881.13;;;2.70;100.00
19447;BME280;9862;49.462;11.054;2023-02-10T00:38:00;99879.34;;;2.71;100.00
19447;BME280;9862;49.462;11.054;2023-02-10T00:40:28;99891.97;;;2.66;100.00
19447;BME280;9862;49.462;11.054;2023-02-10T00:42:54;99884.69;;;2.69;100.00
19447;BME280;9862;49.462;11.054;2023-02-10T00:45:21;99897.84;;;2.69;100.00
19447;BME280;9862;49.462;11.054;2023-02-10T00:47:47;99890.69;;;2.71;100.00
19447;BME280;9862;49.462;11.054;2023-02-10T00:50:15;99887.84;;;2.74;100.00
19447;BME280;9862;49.462;11.054;2023-02-10T00:52:41;99888.56;;;2.76;100.00
19447;BME280;9862;49.462;11.054;2023-02-10T00:55:08;99884.97;;;2.77;100.00
19447;BME280;9862;49.462;11.054;2023-02-10T00:57:36;99890.03;;;2.80;100.00
19447;BME280;9862;49.462;11.054;2023-02-10T01:00:03;99894.53;;;2.78;100.00
19447;BME280;9862;49.462;11.054;2023-02-10T01:02:30;99894.53;;;2.78;100.00
19447;BME280;9862;49.462;11.054;2023-02-10T01:04:57;99899.06;;;2.76;100.00
19447;BME280;9862;49.462;11.054;2023-02-10T01:07:24;99902.66;;;2.75;100.00
19447;BME280;9862;49.462;11.054;2023-02-10T01:09:51;99900.97;;;2.74;100.00
19447;BME280;9862;49.462;11.054;2023-02-10T01:12:17;99907.41;;;2.70;100.00
19447;BME280;9862;49.462;11.054;2023-02-10T01:14:45;99900.56;;;2.68;100.00
19447;BME280;9862;49.462;11.054;2023-02-10T01:17:12;99903.56;;;2.63;100.00
19447;BME280;9862;49.462;11.054;2023-02-10T01:19:38;99901.88;;;2.62;100.00
19447;BME280;9862;49.462;11.054;2023-02-10T01:22:05;99901.66;;;2.65;100.00
19447;BME280;9862;49.462;11.054;2023-02-10T01:24:32;99909.41;;;2.67;100.00
19447;BME280;9862;49.462;11.054;2023-02-10T01:26:58;99915.31;;;2.70;100.00
19447;BME280;9862;49.462;11.054;2023-02-10T01:29:25;99907.31;;;2.72;100.00
19447;BME280;9862;49.462;11.054;2023-02-10T01:31:53;99913.50;;;2.71;100.00
19447;BME280;9862;49.462;11.054;2023-02-10T01:34:19;99915.31;;;2.70;100.00
19447;BME280;9862;49.462;11.054;2023-02-10T01:36:46;99911.81;;;2.70;100.00
19447;BME280;9862;49.462;11.054;2023-02-10T01:39:13;99908.13;;;2.72;100.00
19447;BME280;9862;49.462;11.054;2023-02-10T01:41:39;99916.03;;;2.72;100.00
19447;BME280;9862;49.462;11.054;2023-02-10T01:47:13;99919.09;;;2.66;100.00
19447;BME280;9862;49.462;11.054;2023-02-10T01:49:43;99924.13;;;2.69;100.00
19447;BME280;9862;49.462;11.054;2023-02-10T01:52:15;99925.31;;;2.65;100.00
19447;BME280;9862;49.462;11.054;2023-02-10T01:54:45;99926.97;;;2.66;100.00
19447;BME280;9862;49.462;11.054;2023-02-10T01:57:13;99932.94;;;2.68;100.00
19447;BME280;9862;49.462;11.054;2023-02-10T01:59:41;99925.81;;;2.70;100.00
19447;BME280;9862;49.462;11.054;2023-02-10T02:02:08;99920.75;;;2.67;100.00
19447;BME280;9862;49.462;11.054;2023-02-10T02:04:46;99919.31;;;2.63;100.00
19447;BME280;9862;49.462;11.054;2023-02-10T02:07:14;99923.22;;;2.57;100.00
19447;BME280;9862;49.462;11.054;2023-02-10T02:09:41;99918.91;;;2.56;100.00
19447;BME280;9862;49.462;11.054;2023-02-10T02:12:13;99918.50;;;2.50;100.00
19447;BME280;9862;49.462;11.054;2023-02-10T02:14:47;99921.25;;;2.48;100.00
19447;BME280;9862;49.462;11.054;2023-02-10T02:17:21;99907.41;;;2.46;100.00
19447;BME280;9862;49.462;11.054;2023-02-10T02:20:13;99908.00;;;2.50;100.00
19447;BME280;9862;49.462;11.054;2023-02-10T02:23:12;99907.28;;;2.48;100.00
19447;BME280;9862;49.462;11.054;2023-02-10T02:25:55;99907.41;;;2.46;100.00
19447;BME280;9862;49.462;11.054;2023-02-10T02:28:28;99908.47;;;2.44;100.00
19447;BME280;9862;49.462;11.054;2023-02-10T02:34:14;99926.13;;;2.42;100.00
19447;BME280;9862;49.462;11.054;2023-02-10T02:36:46;99928.66;;;2.43;100.00
19447;BME280;9862;49.462;11.054;2023-02-10T02:39:15;99932.84;;;2.46;100.00
19447;BME280;9862;49.462;11.054;2023-02-10T02:41:42;99930.69;;;2.51;100.00
19447;BME280;9862;49.462;11.054;2023-02-10T02:44:08;99934.19;;;2.51;100.00
19447;BME280;9862;49.462;11.054;2023-02-10T02:46:44;99935.97;;;2.51;100.00
19447;BME280;9862;49.462;11.054;2023-02-10T02:49:23;99943.75;;;2.52;100.00
19447;BME280;9862;49.462;11.054;2023-02-10T02:52:00;99944.38;;;2.56;100.00
19447;BME280;9862;49.462;11.054;2023-02-10T02:54:36;99939.34;;;2.53;100.00
19447;BME280;9862;49.462;11.054;2023-02-10T02:57:11;99935.03;;;2.52;100.00
19447;BME280;9862;49.462;11.054;2023-02-10T02:59:47;99939.34;;;2.53;100.00
19447;BME280;9862;49.462;11.054;2023-02-10T03:02:17;99938.59;;;2.51;100.00
19447;BME280;9862;49.462;11.054;2023-02-10T03:04:47;99952.69;;;2.50;100.00
19447;BME280;9862;49.462;11.054;2023-02-10T03:07:14;99948.19;;;2.52;100.00
19447;BME280;9862;49.462;11.054;2023-02-10T03:09:41;99942.41;;;2.47;100.00
19447;BME280;9862;49.462;11.054;2023-02-10T03:12:09;99945.69;;;2.38;100.00
19447;BME280;9862;49.462;11.054;2023-02-10T03:14:37;99942.31;;;2.36;100.00
19447;BME280;9862;49.462;11.054;2023-02-10T03:17:05;99938.22;;;2.32;100.00
19447;BME280;9862;49.462;11.054;2023-02-10T03:19:32;99939.94;;;2.33;100.00
19447;BME280;9862;49.462;11.054;2023-02-10T03:22:01;99942.56;;;2.33;100.00
19447;BME280;9862;49.462;11.054;2023-02-10T03:24:27;99948.72;;;2.32;100.00
19447;BME280;9862;49.462;11.054;2023-02-10T03:26:54;99941.81;;;2.30;100.00
19447;BME280;9862;49.462;11.054;2023-02-10T03:29:20;99932.25;;;2.29;100.00
19447;BME280;9862;49.462;11.054;2023-02-10T03:31:49;99939.19;;;2.30;100.00
19447;BME280;9862;49.462;11.054;2023-02-10T03:34:16;99935.59;;;2.32;100.00
19447;BME280;9862;49.462;11.054;2023-02-10T03:36:42;99942.03;;;2.27;100.00
19447;BME280;9862;49.462;11.054;2023-02-10T03:39:10;99942.97;;;2.26;100.00
19447;BME280;9862;49.462;11.054;2023-02-10T03:41:37;99936.78;;;2.27;100.00
19447;BME280;9862;49.462;11.054;2023-02-10T03:44:03;99942.75;;;2.29;100.00
19447;BME280;9862;49.462;11.054;2023-02-10T03:46:31;99947.06;;;2.30;100.00
19447;BME280;9862;49.462;11.054;2023-02-10T03:48:58;99946.09;;;2.32;100.00
19447;BME280;9862;49.462;11.054;2023-02-10T03:51:24;99947.06;;;2.30;100.00
19447;BME280;9862;49.462;11.054;2023-02-10T03:53:51;99957.91;;;2.26;100.00
19447;BME280;9862;49.462;11.054;2023-02-10T03:56:19;99953.06;;;2.33;100.00
19447;BME280;9862;49.462;11.054;2023-02-10T03:58:45;99954.50;;;2.37;100.00
19447;BME280;9862;49.462;11.054;2023-02-10T04:01:14;99954.94;;;2.30;100.00
19447;BME280;9862;49.462;11.054;2023-02-10T04:03:41;99954.75;;;2.34;100.00
19447;BME280;9862;49.462;11.054;2023-02-10T04:06:08;99956.13;;;2.26;100.00
19447;BME280;9862;49.462;11.054;2023-02-10T04:08:35;99958.97;;;2.23;100.00
19447;BME280;9862;49.462;11.054;2023-02-10T04:11:03;99960.75;;;2.23;100.00
19447;BME280;9862;49.462;11.054;2023-02-10T04:13:31;99966.00;;;2.23;100.00
19447;BME280;9862;49.462;11.054;2023-02-10T04:16:02;99966.72;;;2.25;100.00
19447;BME280;9862;49.462;11.054;2023-02-10T04:18:28;99975.69;;;2.22;100.00
19447;BME280;9862;49.462;11.054;2023-02-10T04:20:55;99981.00;;;2.21;100.00
19447;BME280;9862;49.462;11.054;2023-02-10T04:23:22;99974.91;;;2.20;100.00
19447;BME280;9862;49.462;11.054;2023-02-10T04:25:49;99985.22;;;2.23;100.00
19447;BME280;9862;49.462;11.054;2023-02-10T04:28:16;99989.09;;;2.30;100.00
19447;BME280;9862;49.462;11.054;2023-02-10T04:30:44;99986.75;;;2.39;100.00
19447;BME280;9862;49.462;11.054;2023-02-10T04:33:10;99983.94;;;2.42;100.00
19447;BME280;9862;49.462;11.054;2023-02-10T04:35:37;99991.06;;;2.40;100.00
19447;BME280;9862;49.462;11.054;2023-02-10T04:38:03;99991.81;;;2.42;100.00
19447;BME280;9862;49.462;11.054;2023-02-10T04:40:30;99996.53;;;2.37;100.00
19447;BME280;9862;49.462;11.054;2023-02-10T04:42:57;99997.72;;;2.33;100.00
19447;BME280;9862;49.462;11.054;2023-02-10T04:45:23;100006.22;;;2.36;100.00
19447;BME280;9862;49.462;11.054;2023-02-10T04:47:51;100003.47;;;2.38;100.00
19447;BME280;9862;49.462;11.054;2023-02-10T04:50:18;100003.69;;;2.35;100.00
19447;BME280;9862;49.462;11.054;2023-02-10T04:52:44;100008.31;;;2.31;100.00
19447;BME280;9862;49.462;11.054;2023-02-10T04:55:11;100015.28;;;2.32;100.00
19447;BME280;9862;49.462;11.054;2023-02-10T04:57:38;100007.47;;;2.30;100.00
19447;BME280;9862;49.462;11.054;2023-02-10T05:00:05;100007.69;;;2.27;100.00
19447;BME280;9862;49.462;11.054;2023-02-10T05:02:32;100009.81;;;2.22;100.00
19447;BME280;9862;49.462;11.054;2023-02-10T05:05:00;100020.41;;;2.21;100.00
19447;BME280;9862;49.462;11.054;2023-02-10T05:07:27;100021.34;;;2.20;100.00
19447;BME280;9862;49.462;11.054;2023-02-10T05:09:53;100020.53;;;2.19;100.00
19447;BME280;9862;49.462;11.054;2023-02-10T05:12:20;100018.84;;;2.18;100.00
19447;BME280;9862;49.462;11.054;2023-02-10T05:14:46;100018.84;;;2.18;100.00
19447;BME280;9862;49.462;11.054;2023-02-10T05:17:13;100022.41;;;2.17;100.00
19447;BME280;9862;49.462;11.054;2023-02-10T05:19:40;100011.19;;;2.15;100.00
19447;BME280;9862;49.462;11.054;2023-02-10T05:22:07;100013.81;;;2.15;100.00
19447;BME280;9862;49.462;11.054;2023-02-10T05:24:34;100011.19;;;2.15;100.00
19447;BME280;9862;49.462;11.054;2023-02-10T05:27:01;100011.09;;;2.04;100.00
19447;BME280;9862;49.462;11.054;2023-02-10T05:29:27;100015.81;;;1.99;100.00
19447;BME280;9862;49.462;11.054;2023-02-10T05:31:54;100023.69;;;1.99;100.00
19447;BME280;9862;49.462;11.054;2023-02-10T05:34:21;100018.66;;;1.96;100.00
19447;BME280;9862;49.462;11.054;2023-02-10T05:36:47;100027.66;;;1.92;100.00
19447;BME280;9862;49.462;11.054;2023-02-10T05:39:17;100035.97;;;1.86;100.00
19447;BME280;9862;49.462;11.054;2023-02-10T05:41:50;100026.41;;;1.85;100.00
19447;BME280;9862;49.462;11.054;2023-02-10T05:44:17;100036.09;;;1.84;100.00
19447;BME280;9862;49.462;11.054;2023-02-10T05:46:44;100044.69;;;1.86;100.00
19447;BME280;9862;49.462;11.054;2023-02-10T05:49:11;100050.56;;;1.90;100.00
19447;BME280;9862;49.462;11.054;2023-02-10T05:51:37;100043.41;;;1.92;100.00
19447;BME280;9862;49.462;11.054;2023-02-10T05:54:04;100048.03;;;1.88;100.00
19447;BME280;9862;49.462;11.054;2023-02-10T05:56:33;100038.59;;;1.86;100.00
19447;BME280;9862;49.462;11.054;2023-02-10T05:59:00;100040.50;;;1.84;100.00
19447;BME280;9862;49.462;11.054;2023-02-10T06:01:27;100039.63;;;1.83;100.00
19447;BME280;9862;49.462;11.054;2023-02-10T06:03:54;100048.38;;;1.84;100.00
19447;BME280;9862;49.462;11.054;2023-02-10T06:06:20;100043.63;;;1.76;100.00
19447;BME280;9862;49.462;11.054;2023-02-10T06:08:47;100043.91;;;1.71;100.00
19447;BME280;9862;49.462;11.054;2023-02-10T06:11:14;100055.38;;;1.70;100.00
19447;BME280;9862;49.462;11.054;2023-02-10T06:13:42;100048.22;;;1.72;100.00
19447;BME280;9862;49.462;11.054;2023-02-10T06:16:10;100059.47;;;1.75;100.00
19447;BME280;9862;49.462;11.054;2023-02-10T06:18:37;100069.03;;;1.76;100.00
19447;BME280;9862;49.462;11.054;2023-02-10T06:21:03;100074.69;;;1.69;100.00
19447;BME280;9862;49.462;11.054;2023-02-10T06:23:30;100082.03;;;1.64;100.00
19447;BME280;9862;49.462;11.054;2023-02-10T06:25:57;100080.31;;;1.63;100.00
19447;BME280;9862;49.462;11.054;2023-02-10T06:28:25;100078.53;;;1.64;100.00
19447;BME280;9862;49.462;11.054;2023-02-10T06:30:53;100079.41;;;1.64;100.00
19447;BME280;9862;49.462;11.054;2023-02-10T06:33:20;100085.38;;;1.66;100.00
19447;BME280;9862;49.462;11.054;2023-02-10T06:35:47;100090.63;;;1.66;100.00
19447;BME280;9862;49.462;11.054;2023-02-10T06:38:14;100097.56;;;1.67;100.00
19447;BME280;9862;49.462;11.054;2023-02-10T06:40:40;100102.38;;;1.61;100.00
19447;BME280;9862;49.462;11.054;2023-02-10T06:43:07;100101.53;;;1.60;100.00
19447;BME280;9862;49.462;11.054;2023-02-10T06:45:33;100110.34;;;1.59;100.00
19447;BME280;9862;49.462;11.054;2023-02-10T06:48:02;100103.22;;;1.61;100.00
19447;BME280;9862;49.462;11.054;2023-02-10T06:50:28;100110.97;;;1.63;100.00
19447;BME280;9862;49.462;11.054;2023-02-10T06:52:55;100113.09;;;1.70;100.00
19447;BME280;9862;49.462;11.054;2023-02-10T06:55:21;100111.22;;;1.72;100.00
19447;BME280;9862;49.462;11.054;2023-02-10T06:57:48;100120.75;;;1.73;100.00
19447;BME280;9862;49.462;11.054;2023-02-10T07:00:15;100114.69;;;1.73;100.00
19447;BME280;9862;49.462;11.054;2023-02-10T07:02:42;100124.03;;;1.77;100.00
19447;BME280;9862;49.462;11.054;2023-02-10T07:05:10;100110.41;;;1.85;100.00
19447;BME280;9862;49.462;11.054;2023-02-10T07:07:37;100125.22;;;1.86;100.00
19447;BME280;9862;49.462;11.054;2023-02-10T07:10:05;100103.78;;;4.47;100.00
19447;BME280;9862;49.462;11.054;2023-02-10T07:12:32;100093.94;;;6.12;100.00
19447;BME280;9862;49.462;11.054;2023-02-10T07:14:58;100085.31;;;6.71;100.00
19447;BME280;9862;49.462;11.054;2023-02-10T07:17:25;100083.16;;;7.45;100.00
19447;BME280;9862;49.462;11.054;2023-02-10T07:19:51;100072.72;;;7.73;100.00
19447;BME280;9862;49.462;11.054;2023-02-10T07:22:19;100077.06;;;6.95;100.00
19447;BME280;9862;49.462;11.054;2023-02-10T07:24:47;100082.31;;;6.03;98.09
19447;BME280;9862;49.462;11.054;2023-02-10T07:27:14;100093.66;;;5.19;86.15
19447;BME280;9862;49.462;11.054;2023-02-10T07:29:41;100099.59;;;4.44;86.35
19447;BME280;9862;49.462;11.054;2023-02-10T07:32:08;100109.78;;;3.91;90.49
19447;BME280;9862;49.462;11.054;2023-02-10T07:34:34;100107.22;;;3.55;92.62
19447;BME280;9862;49.462;11.054;2023-02-10T07:37:01;100108.63;;;3.24;94.55
19447;BME280;9862;49.462;11.054;2023-02-10T07:39:29;100105.34;;;2.96;95.67
19447;BME280;9862;49.462;11.054;2023-02-10T07:41:56;100106.63;;;2.78;92.84
19447;BME280;9862;49.462;11.054;2023-02-10T07:44:22;100116.56;;;2.62;95.92
19447;BME280;9862;49.462;11.054;2023-02-10T07:46:51;100121.91;;;2.60;99.65
19447;BME280;9862;49.462;11.054;2023-02-10T07:49:18;100111.38;;;2.60;100.00
19447;BME280;9862;49.462;11.054;2023-02-10T07:51:44;100106.34;;;2.57;100.00
19447;BME280;9862;49.462;11.054;2023-02-10T07:54:11;100114.25;;;2.57;100.00
19447;BME280;9862;49.462;11.054;2023-02-10T07:56:39;100111.38;;;2.60;100.00
19447;BME280;9862;49.462;11.054;2023-02-10T07:59:06;100110.25;;;2.64;100.00
19447;BME280;9862;49.462;11.054;2023-02-10T08:01:32;100106.44;;;2.68;100.00
19447;BME280;9862;49.462;11.054;2023-02-10T08:04:01;100104.56;;;2.70;100.00
19447;BME280;9862;49.462;11.054;2023-02-10T08:06:28;100109.94;;;2.56;100.00
19447;BME280;9862;49.462;11.054;2023-02-10T08:08:55;100118.03;;;2.53;100.00
19447;BME280;9862;49.462;11.054;2023-02-10T08:11:21;100120.78;;;2.51;100.00
19447;BME280;9862;49.462;11.054;2023-02-10T08:13:49;100124.97;;;2.54;100.00
19447;BME280;9862;49.462;11.054;2023-02-10T08:16:16;100131.56;;;2.59;100.00
19447;BME280;9862;49.462;11.054;2023-02-10T08:18:43;100131.06;;;2.67;100.00
19447;BME280;9862;49.462;11.054;2023-02-10T08:21:09;100127.91;;;2.62;100.00
19447;BME280;9862;49.462;11.054;2023-02-10T08:23:36;100122.44;;;2.65;100.00
19447;BME280;9862;49.462;11.054;2023-02-10T08:26:04;100128.31;;;2.69;100.00
19447;BME280;9862;49.462;11.054;2023-02-10T08:28:31;100128.22;;;2.70;100.00
19447;BME280;9862;49.462;11.054;2023-02-10T08:31:01;100131.25;;;2.77;100.00
19447;BME280;9862;49.462;11.054;2023-02-10T08:33:28;100143.66;;;2.87;100.00
19447;BME280;9862;49.462;11.054;2023-02-10T08:35:55;100133.13;;;3.00;100.00
19447;BME280;9862;49.462;11.054;2023-02-10T08:38:22;100136.66;;;3.12;100.00
19447;BME280;9862;49.462;11.054;2023-02-10T08:40:54;100144.25;;;3.04;100.00
19447;BME280;9862;49.462;11.054;2023-02-10T08:43:20;100152.03;;;3.05;100.00
19447;BME280;9862;49.462;11.054;2023-02-10T08:45:47;100142.56;;;3.03;100.00
19447;BME280;9862;49.462;11.054;2023-02-10T08:48:15;100143.41;;;3.03;100.00
19447;BME280;9862;49.462;11.054;2023-02-10T08:50:42;100142.88;;;2.98;100.00
19447;BME280;9862;49.462;11.054;2023-02-10T08:53:09;100146.81;;;2.93;100.00
19447;BME280;9862;49.462;11.054;2023-02-10T08:55:35;100142.81;;;3.00;100.00
19447;BME280;9862;49.462;11.054;2023-02-10T08:58:03;100140.97;;;3.13;100.00
19447;BME280;9862;49.462;11.054;2023-02-10T09:00:29;100138.94;;;3.16;100.00
19447;BME280;9862;49.462;11.054;2023-02-10T09:02:56;100144.25;;;3.04;100.00
19447;BME280;9862;49.462;11.054;2023-02-10T09:05:30;100135.19;;;3.08;100.00
19447;BME280;9862;49.462;11.054;2023-02-10T09:07:56;100144.91;;;2.95;100.00
19447;BME280;9862;49.462;11.054;2023-02-10T09:10:23;100155.63;;;3.04;100.00
19447;BME280;9862;49.462;11.054;2023-02-10T09:12:49;100154.75;;;3.16;100.00
19447;BME280;9862;49.462;11.054;2023-02-10T09:15:16;100156.41;;;3.30;100.00
19447;BME280;9862;49.462;11.054;2023-02-10T09:17:43;100157.06;;;3.45;100.00
19447;BME280;9862;49.462;11.054;2023-02-10T09:20:10;100160.59;;;3.57;100.00
19447;BME280;9862;49.462;11.054;2023-02-10T09:22:38;100158.91;;;3.68;100.00
19447;BME280;9862;49.462;11.054;2023-02-10T09:25:05;100169.47;;;3.80;100.00
19447;BME280;9862;49.462;11.054;2023-02-10T09:27:32;100159.94;;;3.90;100.00
19447;BME280;9862;49.462;11.054;2023-02-10T09:29:58;100157.22;;;4.02;100.00
19447;BME280;9862;49.462;11.054;2023-02-10T09:32:25;100166.81;;;4.03;100.00
19447;BME280;9862;49.462;11.054;2023-02-10T09:34:52;100167.31;;;4.09;100.00
19447;BME280;9862;49.462;11.054;2023-02-10T09:37:19;100168.28;;;4.08;100.00
19447;BME280;9862;49.462;11.054;2023-02-10T09:39:47;100166.38;;;4.10;100.00
19447;BME280;9862;49.462;11.054;2023-02-10T09:42:23;100161.81;;;4.12;100.00
19447;BME280;9862;49.462;11.054;2023-02-10T09:44:55;100169.47;;;4.15;100.00
19447;BME280;9862;49.462;11.054;2023-02-10T09:47:41;100168.44;;;4.28;100.00
19447;BME280;9862;49.462;11.054;2023-02-10T09:53:18;100170.44;;;3.79;100.00
19447;BME280;9862;49.462;11.054;2023-02-10T09:55:49;100179.44;;;3.63;100.00
19447;BME280;9862;49.462;11.054;2023-02-10T09:58:24;100174.16;;;3.63;100.00
19447;BME280;9862;49.462;11.054;2023-02-10T10:00:56;100182.63;;;3.80;100.00
19447;BME280;9862;49.462;11.054;2023-02-10T10:03:26;100170.59;;;3.88;100.00
19447;BME280;9862;49.462;11.054;2023-02-10T10:06:00;100167.31;;;4.09;100.00
19447;BME280;9862;49.462;11.054;2023-02-10T10:08:34;100172.81;;;4.06;100.00
19447;BME280;9862;49.462;11.054;2023-02-10T10:11:19;100173.06;;;4.14;100.00
19447;BME280;9862;49.462;11.054;2023-02-10T10:13:49;100167.22;;;4.21;100.00
19447;BME280;9862;49.462;11.054;2023-02-10T10:16:37;100175.13;;;4.21;100.00
19447;BME280;9862;49.462;11.054;2023-02-10T10:19:18;100175.53;;;4.28;100.00
19447;BME280;9862;49.462;11.054;2023-02-10T10:21:55;100169.56;;;4.37;100.00
19447;BME280;9862;49.462;11.054;2023-02-10T10:24:38;100160.13;;;4.57;100.00
19447;BME280;9862;49.462;11.054;2023-02-10T10:27:20;100168.19;;;4.78;100.00
19447;BME280;9862;49.462;11.054;2023-02-10T10:29:51;100169.00;;;4.56;100.00
19447;BME280;9862;49.462;11.054;2023-02-10T10:32:32;100168.84;;;4.46;100.00
19447;BME280;9862;49.462;11.054;2023-02-10T10:35:02;100176.53;;;4.60;100.00
19447;BME280;9862;49.462;11.054;2023-02-10T10:37:29;100166.75;;;4.74;100.00
19447;BME280;9862;49.462;11.054;2023-02-10T10:39:59;100165.28;;;4.70;100.00
19447;BME280;9862;49.462;11.054;2023-02-10T10:42:37;100174.00;;;4.37;100.00
19447;BME280;9862;49.462;11.054;2023-02-10T10:45:11;100168.75;;;4.13;100.00
19447;BME280;9862;49.462;11.054;2023-02-10T10:47:43;100157.47;;;3.99;100.00
19447;BME280;9862;49.462;11.054;2023-02-10T10:50:13;100162.00;;;3.97;100.00
19447;BME280;9862;49.462;11.054;2023-02-10T10:52:41;100161.09;;;4.10;100.00
19447;BME280;9862;49.462;11.054;2023-02-10T10:55:12;100154.34;;;4.41;100.00
19447;BME280;9862;49.462;11.054;2023-02-10T10:57:42;100154.75;;;4.70;100.00
19447;BME280;9862;49.462;11.054;2023-02-10T11:00:17;100151.38;;;4.68;100.00
19447;BME280;9862;49.462;11.054;2023-02-10T11:02:55;100157.38;;;4.92;100.00
19447;BME280;9862;49.462;11.054;2023-02-10T11:05:22;100157.41;;;5.03;100.00
19447;BME280;9862;49.462;11.054;2023-02-10T11:07:52;100157.63;;;5.00;100.00
19447;BME280;9862;49.462;11.054;2023-02-10T11:10:22;100144.31;;;4.68;100.00
19447;BME280;9862;49.462;11.054;2023-02-10T11:12:51;100150.88;;;4.63;100.00
19447;BME280;9862;49.462;11.054;2023-02-10T11:15:30;100151.50;;;4.66;100.00
19447;BME280;9862;49.462;11.054;2023-02-10T11:18:00;100144.69;;;4.86;100.00
19447;BME280;9862;49.462;11.054;2023-02-10T11:20:28;100139.66;;;4.83;100.00
19447;BME280;9862;49.462;11.054;2023-02-10T11:22:57;100140.38;;;4.85;100.00
19447;BME280;9862;49.462;11.054;2023-02-10T11:25:26;100140.09;;;4.99;100.00
19447;BME280;9862;49.462;11.054;2023-02-10T11:27:56;100146.84;;;5.03;100.00
19447;BME280;9862;49.462;11.054;2023-02-10T11:30:25;100141.56;;;5.14;100.00
19447;BME280;9862;49.462;11.054;2023-02-10T11:32:52;100134.78;;;5.44;100.00
19447;BME280;9862;49.462;11.054;2023-02-10T11:35:19;100135.16;;;5.28;100.00
19447;BME280;9862;49.462;11.054;2023-02-10T11:37:51;100147.50;;;5.39;100.00
19447;BME280;9862;49.462;11.054;2023-02-10T11:40:23;100131.47;;;5.31;100.00
19447;BME280;9862;49.462;11.054;2023-02-10T11:42:53;100130.19;;;5.46;100.00
19447;BME280;9862;49.462;11.054;2023-02-10T11:45:24;100119.81;;;5.65;100.00
19447;BME280;9862;49.462;11.054;2023-02-10T11:48:00;100125.25;;;5.85;100.00
19447;BME280;9862;49.462;11.054;2023-02-10T11:50:29;100125.56;;;6.02;100.00
19447;BME280;9862;49.462;11.054;2023-02-10T11:52:57;100117.31;;;6.17;100.00
19447;BME280;9862;49.462;11.054;2023-02-10T11:55:29;100113.53;;;6.30;100.00
19447;BME280;9862;49.462;11.054;2023-02-10T11:58:10;100107.88;;;6.45;100.00
19447;BME280;9862;49.462;11.054;2023-02-10T12:01:09;100107.56;;;6.59;100.00
19447;BME280;9862;49.462;11.054;2023-02-10T12:03:49;100115.50;;;6.59;100.00
19447;BME280;9862;49.462;11.054;2023-02-10T12:06:25;100118.19;;;6.69;98.52
19447;BME280;9862;49.462;11.054;2023-02-10T12:09:00;100115.03;;;6.54;98.03
19447;BME280;9862;49.462;11.054;2023-02-10T12:11:38;100122.53;;;6.49;99.10
19447;BME280;9862;49.462;11.054;2023-02-10T12:14:19;100121.72;;;6.48;100.00
19447;BME280;9862;49.462;11.054;2023-02-10T12:16:58;100107.38;;;6.51;100.00
19447;BME280;9862;49.462;11.054;2023-02-10T12:19:31;100113.09;;;6.56;100.00
19447;BME280;9862;49.462;11.054;2023-02-10T12:22:03;100105.47;;;6.63;100.00
19447;BME280;9862;49.462;11.054;2023-02-10T12:24:43;100100.06;;;6.64;100.00
19447;BME280;9862;49.462;11.054;2023-02-10T12:27:17;100083.41;;;6.83;95.08
19447;BME280;9862;49.462;11.054;2023-02-10T12:29:55;100095.50;;;6.66;94.16
19447;BME280;9862;49.462;11.054;2023-02-10T12:32:35;100095.63;;;6.44;95.63
19447;BME280;9862;49.462;11.054;2023-02-10T12:35:20;100097.28;;;6.14;98.67
19447;BME280;9862;49.462;11.054;2023-02-10T12:37:54;100097.34;;;6.03;98.73
19447;BME280;9862;49.462;11.054;2023-02-10T12:40:37;100093.81;;;5.82;99.50
19447;BME280;9862;49.462;11.054;2023-02-10T12:43:20;100087.41;;;5.95;100.00
19447;BME280;9862;49.462;11.054;2023-02-10T12:45:56;100082.66;;;5.78;100.00
19447;BME280;9862;49.462;11.054;2023-02-10T12:48:30;100090.81;;;5.54;100.00
19447;BME280;9862;49.462;11.054;2023-02-10T12:51:11;100092.78;;;5.41;100.00
19447;BME280;9862;49.462;11.054;2023-02-10T12:53:42;100090.84;;;5.43;100.00
19447;BME280;9862;49.462;11.054;2023-02-10T12:56:15;100084.88;;;5.30;100.00
19447;BME280;9862;49.462;11.054;2023-02-10T12:58:47;100089.91;;;5.33;100.00
19447;BME280;9862;49.462;11.054;2023-02-10T13:01:19;100086.00;;;5.16;100.00
19447;BME280;9862;49.462;11.054;2023-02-10T13:03:50;100086.13;;;5.14;100.00
19447;BME280;9862;49.462;11.054;2023-02-10T13:06:27;100078.22;;;5.14;100.00
19447;BME280;9862;49.462;11.054;2023-02-10T13:09:02;100085.19;;;5.04;100.00
19447;BME280;9862;49.462;11.054;2023-02-10T13:11:35;100085.41;;;5.12;100.00
19447;BME280;9862;49.462;11.054;2023-02-10T13:14:09;100076.50;;;5.25;100.00
19447;BME280;9862;49.462;11.054;2023-02-10T13:16:38;100083.31;;;5.70;100.00